createdAt,value
2018-10-07T00:01:24.649Z,99.90
2018-10-07T00:03:58.399Z,99.90
2018-10-07T00:06:32.130Z,99.90
2018-10-07T00:09:07.145Z,99.90
2018-10-07T00:11:40.668Z,99.90
2018-10-07T00:14:13.196Z,99.90
2018-10-07T00:16:45.397Z,99.90
2018-10-07T00:19:17.112Z,99.90
2018-10-07T00:21:48.383Z,99.90
2018-10-07T00:24:18.966Z,99.90
2018-10-07T00:26:49.597Z,99.90
2018-10-07T00:29:20.283Z,99.90
2018-10-07T00:31:56.250Z,99.90
2018-10-07T00:34:27.013Z,99.90
2018-10-07T00:36:57.790Z,99.90
2018-10-07T00:39:28.414Z,99.90
2018-10-07T00:41:59.045Z,99.90
2018-10-07T00:44:29.651Z,99.90
2018-10-07T00:47:00.274Z,99.90
2018-10-07T00:49:31.021Z,99.90
2018-10-07T00:52:01.680Z,99.90
2018-10-07T00:54:32.317Z,99.80
2018-10-07T00:57:02.937Z,99.90
2018-10-07T00:59:33.582Z,99.70
2018-10-07T01:02:04.245Z,99.90
2018-10-07T01:04:33.731Z,99.90
2018-10-07T01:07:04.673Z,99.90
2018-10-07T01:09:35.374Z,99.90
2018-10-07T01:12:06.524Z,99.90
2018-10-07T01:14:37.158Z,99.90
2018-10-07T01:17:08.014Z,99.90
2018-10-07T01:19:39.041Z,99.90
2018-10-07T01:22:09.662Z,99.90
2018-10-07T01:24:40.295Z,99.90
2018-10-07T01:27:10.906Z,99.90
2018-10-07T01:29:41.560Z,99.90
2018-10-07T01:32:12.174Z,99.90
2018-10-07T01:34:42.841Z,99.90
2018-10-07T01:37:13.473Z,99.90
2018-10-07T01:39:44.129Z,99.90
2018-10-07T01:42:14.795Z,99.90
2018-10-07T01:44:45.449Z,99.90
2018-10-07T01:47:16.081Z,99.90
2018-10-07T01:49:46.710Z,99.90
2018-10-07T01:52:17.326Z,99.90
2018-10-07T01:54:47.957Z,99.90
2018-10-07T01:57:18.570Z,99.90
2018-10-07T01:59:49.219Z,99.90
2018-10-07T02:02:20.074Z,99.90
2018-10-07T02:04:50.685Z,99.90
2018-10-07T02:07:21.698Z,99.90
2018-10-07T02:09:52.583Z,99.90
2018-10-07T02:12:23.201Z,99.90
2018-10-07T02:14:53.827Z,99.90
2018-10-07T02:17:24.470Z,99.90
2018-10-07T02:19:55.090Z,99.90
2018-10-07T02:22:26.090Z,99.90
2018-10-07T02:24:56.885Z,99.90
2018-10-07T02:27:27.855Z,99.90
2018-10-07T02:29:58.498Z,99.90
2018-10-07T02:32:29.118Z,99.90
2018-10-07T02:34:59.778Z,99.90
2018-10-07T02:37:30.441Z,99.90
2018-10-07T02:40:01.275Z,99.90
2018-10-07T02:42:31.881Z,99.90
2018-10-07T02:45:02.566Z,99.90
2018-10-07T02:47:33.152Z,99.90
2018-10-07T02:50:16.881Z,99.90
2018-10-07T02:52:49.404Z,99.90
2018-10-07T02:55:23.345Z,99.90
2018-10-07T02:57:55.181Z,99.90
2018-10-07T03:00:25.821Z,99.90
2018-10-07T03:02:56.770Z,99.90
2018-10-07T03:05:27.402Z,99.90
2018-10-07T03:07:58.032Z,99.90
2018-10-07T03:10:28.658Z,99.90
2018-10-07T03:12:59.312Z,99.90
2018-10-07T03:15:29.915Z,99.90
2018-10-07T03:18:00.562Z,99.90
2018-10-07T03:20:31.166Z,99.90
2018-10-07T03:23:01.799Z,99.90
2018-10-07T03:25:32.407Z,99.90
2018-10-07T03:28:03.079Z,99.90
2018-10-07T03:30:33.704Z,99.90
2018-10-07T03:33:04.525Z,99.90
2018-10-07T03:35:35.174Z,99.90
2018-10-07T03:38:05.837Z,99.90
2018-10-07T03:40:36.446Z,99.90
2018-10-07T03:43:07.097Z,99.90
2018-10-07T03:45:37.720Z,99.90
2018-10-07T03:48:08.359Z,99.90
2018-10-07T03:50:38.997Z,99.90
2018-10-07T03:53:09.614Z,99.90
2018-10-07T03:55:40.265Z,99.90
2018-10-07T03:58:10.902Z,99.90
2018-10-07T04:00:42.237Z,99.90
2018-10-07T04:03:12.870Z,99.90
2018-10-07T04:05:43.892Z,99.90
2018-10-07T04:08:14.701Z,99.90
2018-10-07T04:10:45.344Z,99.90
2018-10-07T04:13:15.958Z,99.90
2018-10-07T04:15:46.618Z,99.90
2018-10-07T04:18:17.250Z,99.90
2018-10-07T04:20:47.886Z,99.90
2018-10-07T04:23:18.528Z,99.90
2018-10-07T04:25:49.380Z,99.90
2018-10-07T04:28:19.966Z,99.90
2018-10-07T04:30:50.670Z,99.90
2018-10-07T04:33:21.502Z,99.90
2018-10-07T04:35:52.149Z,99.90
2018-10-07T04:38:22.830Z,99.90
2018-10-07T04:40:53.486Z,99.90
2018-10-07T04:43:24.119Z,99.90
2018-10-07T04:45:54.765Z,99.90
2018-10-07T04:48:25.350Z,99.90
2018-10-07T04:50:55.982Z,99.90
2018-10-07T04:53:26.829Z,99.90
2018-10-07T04:55:57.690Z,99.90
2018-10-07T04:58:28.306Z,99.90
2018-10-07T05:00:59.013Z,99.90
2018-10-07T05:03:29.638Z,99.90
2018-10-07T05:06:00.656Z,99.90
2018-10-07T05:08:31.286Z,99.90
2018-10-07T05:11:03.262Z,99.90
2018-10-07T05:13:45.297Z,99.90
2018-10-07T05:16:23.110Z,99.90
2018-10-07T05:18:53.738Z,99.90
2018-10-07T05:21:24.365Z,99.90
2018-10-07T05:23:55.310Z,99.90
2018-10-07T05:26:26.894Z,99.90
2018-10-07T05:28:57.616Z,99.90
2018-10-07T05:31:28.230Z,99.90
2018-10-07T05:33:58.904Z,99.90
2018-10-07T05:36:29.689Z,99.90
2018-10-07T05:39:00.318Z,99.90
2018-10-07T05:41:30.953Z,99.90
2018-10-07T05:44:01.599Z,99.90
2018-10-07T05:46:32.438Z,99.90
2018-10-07T05:49:03.217Z,99.90
2018-10-07T05:51:33.820Z,99.90
2018-10-07T05:54:04.462Z,99.90
2018-10-07T05:56:35.097Z,99.90
2018-10-07T05:59:06.625Z,99.90
2018-10-07T06:01:41.024Z,99.90
2018-10-07T06:04:34.749Z,99.90
2018-10-07T06:07:05.446Z,99.90
2018-10-07T06:09:37.253Z,99.90
2018-10-07T06:12:07.946Z,99.90
2018-10-07T06:14:50.021Z,99.90
2018-10-07T06:17:20.821Z,99.90
2018-10-07T06:19:53.583Z,99.90
2018-10-07T06:22:24.584Z,99.90
2018-10-07T06:24:55.217Z,99.90
2018-10-07T06:27:25.858Z,99.90
2018-10-07T06:29:56.623Z,99.90
2018-10-07T06:32:27.681Z,99.90
2018-10-07T06:34:58.295Z,99.90
2018-10-07T06:37:29.295Z,99.90
2018-10-07T06:40:00.049Z,99.90
2018-10-07T06:42:30.774Z,99.90
2018-10-07T06:45:01.417Z,99.90
2018-10-07T06:47:32.078Z,99.90
2018-10-07T06:50:03.307Z,99.90
2018-10-07T06:52:33.986Z,99.90
2018-10-07T06:55:04.652Z,99.90
2018-10-07T06:57:35.305Z,99.90
2018-10-07T07:00:06.843Z,99.90
2018-10-07T07:02:37.521Z,99.90
2018-10-07T07:05:08.174Z,99.90
2018-10-07T07:07:38.772Z,99.90
2018-10-07T07:10:09.411Z,99.90
2018-10-07T07:12:40.022Z,99.90
2018-10-07T07:15:10.658Z,99.90
2018-10-07T07:17:41.265Z,99.90
2018-10-07T07:20:12.101Z,99.90
2018-10-07T07:22:42.900Z,99.90
2018-10-07T07:25:13.553Z,99.90
2018-10-07T07:27:44.166Z,99.90
2018-10-07T07:30:15.151Z,99.90
2018-10-07T07:32:45.754Z,99.90
2018-10-07T07:35:16.393Z,99.90
2018-10-07T07:37:47.009Z,99.90
2018-10-07T07:40:17.706Z,99.90
2018-10-07T07:42:48.572Z,99.90
2018-10-07T07:45:19.245Z,99.90
2018-10-07T07:47:49.901Z,99.90
2018-10-07T07:50:20.526Z,99.90
2018-10-07T07:52:51.380Z,99.90
2018-10-07T07:55:22.007Z,99.90
2018-10-07T07:57:52.849Z,99.90
2018-10-07T08:00:23.476Z,99.90
2018-10-07T08:02:54.505Z,99.90
2018-10-07T08:05:25.109Z,99.90
2018-10-07T08:07:55.750Z,99.90
2018-10-07T08:10:26.698Z,99.90
2018-10-07T08:12:57.335Z,99.90
2018-10-07T08:15:28.095Z,99.90
2018-10-07T08:17:58.943Z,99.90
2018-10-07T08:20:29.554Z,99.90
2018-10-07T08:23:00.177Z,99.90
2018-10-07T08:25:30.787Z,99.90
2018-10-07T08:28:01.418Z,99.90
2018-10-07T08:30:32.041Z,99.90
2018-10-07T08:33:02.656Z,99.90
2018-10-07T08:35:33.303Z,99.90
2018-10-07T08:38:03.894Z,99.90
2018-10-07T08:40:34.511Z,99.90
2018-10-07T08:43:05.096Z,99.90
2018-10-07T08:45:35.725Z,99.90
2018-10-07T08:48:07.014Z,99.90
2018-10-07T08:50:37.645Z,99.90
2018-10-07T08:53:08.577Z,99.90
2018-10-07T08:55:39.222Z,99.90
2018-10-07T08:58:10.034Z,99.90
2018-10-07T09:00:40.625Z,99.90
2018-10-07T09:03:11.266Z,99.90
2018-10-07T09:05:41.860Z,99.90
2018-10-07T09:08:12.518Z,99.90
2018-10-07T09:10:43.121Z,99.90
2018-10-07T09:13:13.769Z,99.90
2018-10-07T09:15:44.461Z,99.90
2018-10-07T09:18:15.265Z,99.90
2018-10-07T09:20:45.897Z,99.90
2018-10-07T09:23:16.698Z,99.90
2018-10-07T09:25:47.662Z,99.90
2018-10-07T09:28:18.295Z,99.90
2018-10-07T09:30:48.976Z,99.90
2018-10-07T09:33:19.589Z,99.90
2018-10-07T09:35:50.203Z,99.90
2018-10-07T09:38:20.834Z,99.90
2018-10-07T09:40:51.481Z,99.90
2018-10-07T09:43:22.096Z,99.90
2018-10-07T09:45:53.613Z,99.90
2018-10-07T09:48:24.254Z,99.90
2018-10-07T09:50:55.203Z,99.90
2018-10-07T09:53:25.808Z,99.90
2018-10-07T09:55:56.483Z,99.90
2018-10-07T09:58:27.246Z,99.90
2018-10-07T10:00:57.856Z,99.90
2018-10-07T10:03:28.446Z,99.90
2018-10-07T10:05:59.075Z,99.90
2018-10-07T10:08:29.678Z,99.90
2018-10-07T10:11:00.326Z,99.90
2018-10-07T10:13:31.125Z,99.90
2018-10-07T10:16:01.797Z,99.90
2018-10-07T10:18:53.094Z,99.90
2018-10-07T10:21:32.825Z,99.90
2018-10-07T10:24:12.210Z,99.90
2018-10-07T10:28:05.178Z,99.40
2018-10-07T10:31:44.611Z,99.90
2018-10-07T10:34:33.490Z,99.20
2018-10-07T10:37:05.394Z,99.90
2018-10-07T10:39:58.896Z,99.40
2018-10-07T10:43:49.638Z,99.70
2018-10-07T10:47:16.091Z,99.90
2018-10-07T10:50:03.059Z,99.40
2018-10-07T10:53:42.641Z,99.90
2018-10-07T10:56:29.629Z,97.90
2018-10-07T10:59:07.516Z,99.60
2018-10-07T11:01:53.777Z,99.90
2018-10-07T11:04:27.359Z,99.90
2018-10-07T11:07:09.417Z,99.40
2018-10-07T11:09:50.870Z,97.30
2018-10-07T11:12:45.007Z,95.60
2018-10-07T11:15:27.146Z,97.90
2018-10-07T11:18:09.295Z,98.40
2018-10-07T11:22:54.943Z,97.40
2018-10-07T11:26:07.339Z,96.50
2018-10-07T11:28:46.323Z,96.60
2018-10-07T11:31:39.495Z,95.00
2018-10-07T11:36:25.081Z,95.40
2018-10-07T11:39:08.302Z,94.80
2018-10-07T11:42:23.495Z,95.10
2018-10-07T11:44:58.534Z,95.20
2018-10-07T11:47:40.470Z,94.30
2018-10-07T11:50:16.390Z,94.20
2018-10-07T11:52:59.338Z,94.00
2018-10-07T11:55:30.035Z,93.70
2018-10-07T11:58:00.673Z,94.40
2018-10-07T12:00:31.300Z,93.80
2018-10-07T12:03:01.898Z,93.60
2018-10-07T12:05:32.509Z,93.40
2018-10-07T12:08:03.112Z,91.80
2018-10-07T12:10:33.721Z,92.80
2018-10-07T12:13:04.320Z,93.60
2018-10-07T12:15:34.942Z,93.70
2018-10-07T12:18:06.115Z,93.90
2018-10-07T12:20:36.737Z,92.80
2018-10-07T12:23:07.698Z,92.90
2018-10-07T12:25:38.319Z,92.80
2018-10-07T12:28:09.358Z,92.90
2018-10-07T12:30:39.981Z,93.20
2018-10-07T12:33:10.577Z,93.90
2018-10-07T12:35:41.237Z,91.80
2018-10-07T12:38:12.225Z,92.30
2018-10-07T12:40:43.066Z,93.20
2018-10-07T12:43:13.670Z,94.00
2018-10-07T12:45:44.287Z,93.20
2018-10-07T12:48:14.882Z,92.20
2018-10-07T12:50:45.654Z,92.10
2018-10-07T12:53:16.294Z,92.50
2018-10-07T12:55:46.878Z,92.70
2018-10-07T12:58:17.494Z,93.00
2018-10-07T13:00:48.088Z,93.20
2018-10-07T13:03:18.718Z,93.00
2018-10-07T13:05:49.307Z,93.60
2018-10-07T13:08:19.918Z,94.00
2018-10-07T13:10:50.525Z,92.90
2018-10-07T13:13:21.330Z,89.50
2018-10-07T13:15:51.931Z,91.10
2018-10-07T13:18:22.769Z,92.40
2018-10-07T13:20:53.632Z,93.10
2018-10-07T13:23:24.437Z,92.30
2018-10-07T13:25:55.095Z,91.30
2018-10-07T13:28:25.917Z,92.20
2018-10-07T13:30:56.729Z,90.50
2018-10-07T13:33:27.835Z,90.80
2018-10-07T13:35:58.626Z,86.60
2018-10-07T13:38:29.219Z,89.00
2018-10-07T13:41:00.241Z,85.80
2018-10-07T13:43:30.841Z,85.60
2018-10-07T13:46:01.468Z,87.40
2018-10-07T13:48:32.063Z,87.30
2018-10-07T13:51:02.695Z,87.20
2018-10-07T13:53:33.332Z,85.50
2018-10-07T13:56:04.122Z,86.70
2018-10-07T13:58:34.718Z,87.40
2018-10-07T14:01:05.670Z,87.10
2018-10-07T14:03:36.345Z,85.90
2018-10-07T14:06:07.486Z,86.00
2018-10-07T14:08:38.136Z,84.00
2018-10-07T14:11:08.705Z,84.50
2018-10-07T14:13:39.325Z,84.20
2018-10-07T14:16:09.970Z,84.70
2018-10-07T14:18:40.582Z,85.30
2018-10-07T14:21:11.167Z,85.20
2018-10-07T14:23:41.793Z,85.20
2018-10-07T14:26:12.702Z,84.70
2018-10-07T14:28:43.308Z,83.00
2018-10-07T14:31:13.877Z,84.00
2018-10-07T14:33:44.498Z,85.50
2018-10-07T14:36:15.217Z,87.30
2018-10-07T14:38:45.810Z,86.40
2018-10-07T14:41:16.410Z,82.80
2018-10-07T14:43:47.049Z,83.50
2018-10-07T14:46:17.630Z,83.10
2018-10-07T14:48:48.244Z,85.40
2018-10-07T14:51:18.809Z,82.70
2018-10-07T14:53:49.426Z,83.30
2018-10-07T14:56:20.014Z,85.00
2018-10-07T14:58:50.633Z,83.10
2018-10-07T15:01:21.434Z,83.40
2018-10-07T15:03:52.021Z,81.90
2018-10-07T15:06:22.629Z,82.40
2018-10-07T15:08:53.189Z,83.40
2018-10-07T15:11:23.802Z,80.80
2018-10-07T15:13:54.406Z,81.50
2018-10-07T15:16:25.023Z,79.90
2018-10-07T15:18:55.606Z,82.60
2018-10-07T15:21:26.214Z,83.70
2018-10-07T15:23:57.061Z,85.20
2018-10-07T15:26:27.805Z,84.80
2018-10-07T15:28:58.510Z,82.90
2018-10-07T15:31:29.117Z,81.80
2018-10-07T15:33:59.704Z,81.50
2018-10-07T15:36:30.315Z,81.40
2018-10-07T15:39:01.114Z,84.50
2018-10-07T15:41:31.702Z,84.40
2018-10-07T15:44:02.574Z,83.00
2018-10-07T15:46:33.161Z,82.60
2018-10-07T15:49:04.098Z,83.80
2018-10-07T15:51:34.933Z,83.90
2018-10-07T15:54:05.878Z,84.70
2018-10-07T15:56:36.465Z,84.20
2018-10-07T15:59:07.282Z,85.50
2018-10-07T16:01:37.850Z,85.60
2018-10-07T16:04:08.474Z,84.20
2018-10-07T16:06:39.052Z,84.30
2018-10-07T16:09:10.219Z,86.10
2018-10-07T16:11:40.789Z,84.40
2018-10-07T16:14:11.397Z,83.70
2018-10-07T16:16:41.986Z,84.80
2018-10-07T16:19:12.602Z,86.20
2018-10-07T16:21:43.530Z,84.40
2018-10-07T16:24:14.170Z,85.90
2018-10-07T16:26:45.032Z,85.30
2018-10-07T16:29:15.760Z,85.00
2018-10-07T16:31:46.338Z,86.30
2018-10-07T16:34:16.953Z,86.20
2018-10-07T16:36:47.704Z,87.20
2018-10-07T16:39:18.365Z,87.10
2018-10-07T16:41:49.115Z,88.10
2018-10-07T16:44:19.681Z,88.30
2018-10-07T16:46:50.294Z,89.20
2018-10-07T16:49:20.874Z,89.70
2018-10-07T16:51:51.470Z,88.70
2018-10-07T16:54:22.060Z,89.30
2018-10-07T16:56:52.661Z,90.10
2018-10-07T16:59:23.276Z,89.90
2018-10-07T17:01:53.954Z,90.10
2018-10-07T17:04:24.569Z,90.10
2018-10-07T17:06:55.150Z,90.60
2018-10-07T17:09:25.752Z,91.40
2018-10-07T17:11:56.329Z,91.90
2018-10-07T17:14:26.949Z,92.20
2018-10-07T17:16:57.518Z,92.20
2018-10-07T17:19:28.126Z,93.20
2018-10-07T17:21:58.829Z,93.40
2018-10-07T17:24:29.463Z,93.40
2018-10-07T17:27:00.601Z,93.60
2018-10-07T17:29:31.446Z,93.40
2018-10-07T17:32:02.179Z,93.60
2018-10-07T17:34:32.817Z,94.30
2018-10-07T17:37:03.399Z,94.40
2018-10-07T17:39:34.022Z,94.90
2018-10-07T17:42:04.659Z,95.30
2018-10-07T17:44:35.291Z,95.90
2018-10-07T17:47:06.116Z,94.80
2018-10-07T17:49:36.707Z,95.10
2018-10-07T17:52:07.322Z,95.40
2018-10-07T17:54:37.972Z,95.40
2018-10-07T17:57:08.762Z,95.40
2018-10-07T17:59:39.370Z,96.00
2018-10-07T18:02:09.965Z,95.70
2018-10-07T18:04:40.586Z,95.80
2018-10-07T18:07:11.589Z,96.40
2018-10-07T18:09:42.191Z,96.20
2018-10-07T18:12:12.818Z,96.30
2018-10-07T18:14:43.430Z,96.80
2018-10-07T18:17:14.234Z,97.40
2018-10-07T18:19:45.030Z,97.10
2018-10-07T18:22:15.859Z,97.60
2018-10-07T18:24:46.569Z,97.50
2018-10-07T18:27:17.201Z,97.50
2018-10-07T18:29:47.825Z,97.40
2018-10-07T18:32:18.426Z,97.30
2018-10-07T18:34:49.042Z,97.90
2018-10-07T18:37:19.678Z,97.70
2018-10-07T18:39:50.298Z,97.60
2018-10-07T18:42:20.947Z,98.00
2018-10-07T18:44:51.530Z,98.10
2018-10-07T18:47:22.161Z,98.10
2018-10-07T18:49:52.781Z,98.80
2018-10-07T18:52:23.378Z,98.60
2018-10-07T18:54:53.994Z,98.60
2018-10-07T18:57:24.585Z,98.60
2018-10-07T18:59:55.205Z,98.90
2018-10-07T19:02:25.917Z,99.00
2018-10-07T19:04:56.642Z,98.90
2018-10-07T19:07:27.222Z,99.10
2018-10-07T19:09:57.842Z,99.30
2018-10-07T19:12:28.459Z,99.40
2018-10-07T19:14:59.077Z,99.40
2018-10-07T19:17:29.705Z,99.70
2018-10-07T19:20:00.722Z,99.40
2018-10-07T19:22:31.322Z,99.50
2018-10-07T19:25:01.933Z,99.90
2018-10-07T19:27:32.539Z,99.90
2018-10-07T19:30:03.713Z,99.90
2018-10-07T19:32:34.285Z,99.90
2018-10-07T19:35:05.275Z,99.90
2018-10-07T19:37:35.903Z,99.90
2018-10-07T19:40:06.864Z,99.90
2018-10-07T19:42:37.520Z,99.90
2018-10-07T19:45:08.156Z,99.80
2018-10-07T19:47:38.966Z,99.80
2018-10-07T19:50:09.591Z,99.70
2018-10-07T19:52:40.291Z,99.90
2018-10-07T19:55:11.028Z,99.90
2018-10-07T19:57:41.677Z,99.90
2018-10-07T20:00:12.278Z,99.90
2018-10-07T20:02:42.908Z,99.90
2018-10-07T20:05:13.523Z,99.90
2018-10-07T20:07:44.147Z,99.90
2018-10-07T20:10:14.741Z,99.90
2018-10-07T20:12:45.349Z,99.90
2018-10-07T20:15:15.976Z,99.90
2018-10-07T20:17:46.586Z,99.90
2018-10-07T20:20:17.606Z,99.90
2018-10-07T20:22:48.246Z,99.90
2018-10-07T20:25:18.825Z,99.90
2018-10-07T20:27:49.429Z,99.90
2018-10-07T20:30:20.032Z,99.90
2018-10-07T20:32:50.649Z,99.90
2018-10-07T20:35:21.278Z,99.90
2018-10-07T20:37:52.323Z,99.90
2018-10-07T20:40:23.054Z,99.90
2018-10-07T20:42:53.754Z,99.90
2018-10-07T20:45:24.405Z,99.90
2018-10-07T20:47:55.005Z,99.90
2018-10-07T20:50:25.620Z,99.90
2018-10-07T20:52:56.406Z,99.90
2018-10-07T20:55:27.037Z,99.90
2018-10-07T20:57:57.617Z,99.90
2018-10-07T21:00:28.250Z,99.90
2018-10-07T21:02:59.134Z,99.90
2018-10-07T21:05:29.895Z,99.90
2018-10-07T21:08:00.482Z,99.90
2018-10-07T21:10:31.088Z,99.90
2018-10-07T21:13:01.690Z,99.90
2018-10-07T21:15:32.310Z,99.90
2018-10-07T21:18:02.921Z,99.90
2018-10-07T21:20:33.525Z,99.90
2018-10-07T21:23:04.154Z,99.90
2018-10-07T21:25:34.726Z,99.90
2018-10-07T21:28:05.518Z,99.90
2018-10-07T21:30:36.102Z,99.90
2018-10-07T21:33:06.705Z,99.90
2018-10-07T21:35:37.341Z,99.90
2018-10-07T21:38:07.939Z,99.90
2018-10-07T21:40:38.552Z,99.90
2018-10-07T21:43:09.370Z,99.90
2018-10-07T21:45:40.003Z,99.90
2018-10-07T21:48:10.755Z,99.90
2018-10-07T21:50:41.541Z,99.90
2018-10-07T21:53:12.128Z,99.90
2018-10-07T21:55:42.942Z,99.90
2018-10-07T21:58:13.514Z,99.90
2018-10-07T22:00:44.121Z,99.90
2018-10-07T22:03:14.759Z,99.90
2018-10-07T22:05:45.386Z,99.90
2018-10-07T22:08:16.012Z,99.90
2018-10-07T22:10:46.655Z,99.90
2018-10-07T22:13:17.257Z,99.90
2018-10-07T22:15:47.830Z,99.90
2018-10-07T22:18:18.445Z,99.90
2018-10-07T22:20:49.058Z,99.90
2018-10-07T22:23:19.706Z,99.90
2018-10-07T22:25:50.894Z,99.90
2018-10-07T22:28:21.497Z,99.90
2018-10-07T22:30:52.117Z,99.90
2018-10-07T22:33:22.753Z,99.90
2018-10-07T22:35:53.348Z,99.90
2018-10-07T22:38:24.180Z,99.90
2018-10-07T22:40:54.764Z,99.90
2018-10-07T22:43:25.385Z,99.90
2018-10-07T22:45:55.978Z,99.90
2018-10-07T22:48:26.587Z,99.90
2018-10-07T22:50:57.172Z,99.90
2018-10-07T22:53:27.789Z,99.90
2018-10-07T22:55:58.717Z,99.90
2018-10-07T22:58:29.317Z,99.90
2018-10-07T23:00:59.909Z,99.90
2018-10-07T23:03:30.543Z,99.90
2018-10-07T23:06:01.183Z,99.90
2018-10-07T23:08:31.781Z,99.90
2018-10-07T23:11:02.843Z,99.90
2018-10-07T23:13:33.433Z,99.90
2018-10-07T23:16:04.406Z,99.90
2018-10-07T23:18:35.022Z,99.90
2018-10-07T23:21:05.675Z,99.90
2018-10-07T23:23:36.262Z,99.90
2018-10-07T23:26:07.211Z,99.90
2018-10-07T23:28:37.872Z,99.90
2018-10-07T23:31:08.866Z,99.90
2018-10-07T23:33:39.473Z,99.90
2018-10-07T23:36:10.342Z,99.90
2018-10-07T23:38:40.994Z,99.90
2018-10-07T23:41:11.637Z,99.90
2018-10-07T23:43:42.274Z,99.90
2018-10-07T23:46:12.922Z,99.90
2018-10-07T23:48:43.848Z,99.90
2018-10-07T23:51:14.489Z,99.90
2018-10-07T23:53:45.073Z,99.90
2018-10-07T23:56:15.712Z,99.90
2018-10-07T23:58:46.309Z,99.90
